sensor_id;sensor_type;location;lat;lon;timestamp;pressure;altitude;pressure_sealevel;temperature;humidity
9261;BME280;4667;42.726;23.252;2023-07-02T00:02:10;94233.06;;;16.47;67.04
9261;BME280;4667;42.726;23.252;2023-07-02T00:04:37;94274.13;;;16.63;67.13
9261;BME280;4667;42.726;23.252;2023-07-02T00:07:04;94498.59;;;18.23;67.01
9261;BME280;4667;42.726;23.252;2023-07-02T00:09:31;94582.06;;;18.80;66.90
9261;BME280;4667;42.726;23.252;2023-07-02T00:11:58;94445.50;;;17.78;66.83
9261;BME280;4667;42.726;23.252;2023-07-02T00:14:25;94578.13;;;18.86;67.06
9261;BME280;4667;42.726;23.252;2023-07-02T00:16:53;94406.91;;;17.84;66.65
9261;BME280;4667;42.726;23.252;2023-07-02T00:19:19;94571.50;;;18.92;66.21
9261;BME280;4667;42.726;23.252;2023-07-02T00:21:46;94570.72;;;18.83;66.60
9261;BME280;4667;42.726;23.252;2023-07-02T00:24:13;94353.78;;;17.39;66.97
9261;BME280;4667;42.726;23.252;2023-07-02T00:26:41;94571.06;;;18.82;66.82
9261;BME280;4667;42.726;23.252;2023-07-02T00:29:08;94254.41;;;16.64;66.74
9261;BME280;4667;42.726;23.252;2023-07-02T00:31:35;94522.94;;;18.47;67.16
9261;BME280;4667;42.726;23.252;2023-07-02T00:34:04;94457.75;;;17.87;67.38
9261;BME280;4667;42.726;23.252;2023-07-02T00:36:31;94424.00;;;17.74;67.40
9261;BME280;4667;42.726;23.252;2023-07-02T00:38:58;94263.16;;;16.56;67.55
9261;BME280;4667;42.726;23.252;2023-07-02T00:41:26;94411.53;;;17.52;67.76
9261;BME280;4667;42.726;23.252;2023-07-02T00:43:53;94631.88;;;18.76;67.50
9261;BME280;4667;42.726;23.252;2023-07-02T00:46:22;94339.09;;;16.84;67.43
9261;BME280;4667;42.726;23.252;2023-07-02T00:48:51;94608.44;;;18.73;67.32
9261;BME280;4667;42.726;23.252;2023-07-02T00:51:21;94613.94;;;18.68;66.68
9261;BME280;4667;42.726;23.252;2023-07-02T00:53:49;94396.16;;;17.40;66.21
9261;BME280;4667;42.726;23.252;2023-07-02T00:56:16;94605.47;;;18.83;66.42
9261;BME280;4667;42.726;23.252;2023-07-02T00:58:45;94597.94;;;18.85;66.20
9261;BME280;4667;42.726;23.252;2023-07-02T01:01:14;94611.91;;;18.91;65.76
9261;BME280;4667;42.726;23.252;2023-07-02T01:03:50;94600.75;;;18.80;66.09
9261;BME280;4667;42.726;23.252;2023-07-02T01:06:23;94568.03;;;18.66;66.31
9261;BME280;4667;42.726;23.252;2023-07-02T01:08:53;94591.81;;;18.85;66.38
9261;BME280;4667;42.726;23.252;2023-07-02T01:11:21;94477.72;;;18.16;65.96
9261;BME280;4667;42.726;23.252;2023-07-02T01:13:51;94520.56;;;18.37;65.78
9261;BME280;4667;42.726;23.252;2023-07-02T01:16:19;94538.19;;;18.38;66.05
9261;BME280;4667;42.726;23.252;2023-07-02T01:18:48;94500.19;;;18.24;65.92
9261;BME280;4667;42.726;23.252;2023-07-02T01:21:18;94168.56;;;16.01;65.77
9261;BME280;4667;42.726;23.252;2023-07-02T01:23:46;94470.03;;;18.14;65.33
9261;BME280;4667;42.726;23.252;2023-07-02T01:26:15;94486.81;;;18.15;65.07
9261;BME280;4667;42.726;23.252;2023-07-02T01:28:42;94174.50;;;16.47;64.62
9261;BME280;4667;42.726;23.252;2023-07-02T01:31:09;94390.28;;;17.78;65.11
9261;BME280;4667;42.726;23.252;2023-07-02T01:33:36;94480.38;;;18.51;64.67
9261;BME280;4667;42.726;23.252;2023-07-02T01:36:03;94441.28;;;18.11;65.50
9261;BME280;4667;42.726;23.252;2023-07-02T01:38:31;94563.50;;;19.01;66.02
9261;BME280;4667;42.726;23.252;2023-07-02T01:40:58;94559.59;;;18.90;65.22
9261;BME280;4667;42.726;23.252;2023-07-02T01:43:25;94368.13;;;17.69;65.70
9261;BME280;4667;42.726;23.252;2023-07-02T01:45:51;94554.88;;;19.04;65.33
9261;BME280;4667;42.726;23.252;2023-07-02T01:48:19;94415.56;;;18.07;66.20
9261;BME280;4667;42.726;23.252;2023-07-02T01:50:45;94555.34;;;18.80;65.43
9261;BME280;4667;42.726;23.252;2023-07-02T01:53:12;94446.00;;;18.23;65.32
9261;BME280;4667;42.726;23.252;2023-07-02T01:55:40;94545.75;;;18.88;66.05
9261;BME280;4667;42.726;23.252;2023-07-02T01:58:07;94324.97;;;17.41;66.30
9261;BME280;4667;42.726;23.252;2023-07-02T02:00:34;94465.47;;;18.41;66.61
9261;BME280;4667;42.726;23.252;2023-07-02T02:03:01;94372.41;;;17.87;66.82
9261;BME280;4667;42.726;23.252;2023-07-02T02:05:28;94512.91;;;18.61;66.36
9261;BME280;4667;42.726;23.252;2023-07-02T02:07:55;94491.06;;;18.42;67.16
9261;BME280;4667;42.726;23.252;2023-07-02T02:10:21;94508.34;;;18.44;67.16
9261;BME280;4667;42.726;23.252;2023-07-02T02:12:50;94538.50;;;18.62;67.26
9261;BME280;4667;42.726;23.252;2023-07-02T02:15:17;94503.31;;;18.26;67.70
9261;BME280;4667;42.726;23.252;2023-07-02T02:17:43;94459.66;;;18.04;68.25
9261;BME280;4667;42.726;23.252;2023-07-02T02:20:11;94362.41;;;17.27;68.62
9261;BME280;4667;42.726;23.252;2023-07-02T02:22:38;94543.03;;;18.36;68.71
9261;BME280;4667;42.726;23.252;2023-07-02T02:25:05;94433.69;;;17.61;68.90
9261;BME280;4667;42.726;23.252;2023-07-02T02:27:32;94254.47;;;16.33;68.72
9261;BME280;4667;42.726;23.252;2023-07-02T02:30:00;94523.84;;;18.16;69.63
9261;BME280;4667;42.726;23.252;2023-07-02T02:32:27;94451.28;;;17.71;69.74
9261;BME280;4667;42.726;23.252;2023-07-02T02:34:53;94393.47;;;17.32;69.71
9261;BME280;4667;42.726;23.252;2023-07-02T02:37:21;94249.34;;;16.14;70.27
9261;BME280;4667;42.726;23.252;2023-07-02T02:39:49;94373.91;;;16.97;70.39
9261;BME280;4667;42.726;23.252;2023-07-02T02:42:16;94124.03;;;15.22;70.11
9261;BME280;4667;42.726;23.252;2023-07-02T02:44:43;94313.53;;;16.52;70.02
9261;BME280;4667;42.726;23.252;2023-07-02T02:47:11;94532.91;;;17.89;70.33
9261;BME280;4667;42.726;23.252;2023-07-02T02:49:38;94324.75;;;16.41;70.97
9261;BME280;4667;42.726;23.252;2023-07-02T02:52:06;94482.88;;;17.47;70.90
9261;BME280;4667;42.726;23.252;2023-07-02T02:54:32;94510.50;;;17.59;70.72
9261;BME280;4667;42.726;23.252;2023-07-02T02:56:59;94530.34;;;17.76;71.27
9261;BME280;4667;42.726;23.252;2023-07-02T02:59:26;94544.22;;;17.86;71.15
9261;BME280;4667;42.726;23.252;2023-07-02T03:01:53;94317.03;;;16.30;71.43
9261;BME280;4667;42.726;23.252;2023-07-02T03:04:21;94420.78;;;17.06;71.22
9261;BME280;4667;42.726;23.252;2023-07-02T03:06:50;94516.84;;;17.72;71.11
9261;BME280;4667;42.726;23.252;2023-07-02T03:09:18;94531.06;;;17.99;71.20
9261;BME280;4667;42.726;23.252;2023-07-02T03:11:45;94423.41;;;17.37;70.92
9261;BME280;4667;42.726;23.252;2023-07-02T03:14:12;94540.16;;;18.06;70.56
9261;BME280;4667;42.726;23.252;2023-07-02T03:16:39;94443.19;;;17.45;70.32
9261;BME280;4667;42.726;23.252;2023-07-02T03:19:06;94406.25;;;17.12;70.19
9261;BME280;4667;42.726;23.252;2023-07-02T03:21:34;94562.78;;;18.09;70.52
9261;BME280;4667;42.726;23.252;2023-07-02T03:24:01;94565.13;;;18.10;70.92
9261;BME280;4667;42.726;23.252;2023-07-02T03:26:27;94569.72;;;18.18;70.95
9261;BME280;4667;42.726;23.252;2023-07-02T03:28:54;94574.59;;;18.25;70.70
9261;BME280;4667;42.726;23.252;2023-07-02T03:31:21;94402.19;;;17.15;70.38
9261;BME280;4667;42.726;23.252;2023-07-02T03:33:47;94575.22;;;18.31;69.72
9261;BME280;4667;42.726;23.252;2023-07-02T03:36:14;94562.06;;;18.34;70.25
9261;BME280;4667;42.726;23.252;2023-07-02T03:38:42;94373.59;;;16.98;70.42
9261;BME280;4667;42.726;23.252;2023-07-02T03:41:09;94510.03;;;17.97;70.72
9261;BME280;4667;42.726;23.252;2023-07-02T03:43:36;94504.22;;;18.04;70.08
9261;BME280;4667;42.726;23.252;2023-07-02T03:46:02;94146.13;;;15.85;69.67
9261;BME280;4667;42.726;23.252;2023-07-02T03:48:29;94203.38;;;16.22;69.65
9261;BME280;4667;42.726;23.252;2023-07-02T03:50:56;94378.72;;;17.34;69.17
9261;BME280;4667;42.726;23.252;2023-07-02T03:53:23;94480.38;;;18.16;68.17
9261;BME280;4667;42.726;23.252;2023-07-02T03:55:51;94038.91;;;15.27;68.52
9261;BME280;4667;42.726;23.252;2023-07-02T03:58:18;94543.22;;;18.65;68.95
9261;BME280;4667;42.726;23.252;2023-07-02T04:00:44;94544.50;;;18.77;68.49
9261;BME280;4667;42.726;23.252;2023-07-02T04:03:15;94438.13;;;18.01;67.59
9261;BME280;4667;42.726;23.252;2023-07-02T04:05:42;94426.38;;;17.93;68.32
9261;BME280;4667;42.726;23.252;2023-07-02T04:08:09;94446.78;;;18.06;67.67
9261;BME280;4667;42.726;23.252;2023-07-02T04:10:36;94334.69;;;17.37;67.63
9261;BME280;4667;42.726;23.252;2023-07-02T04:13:04;94523.13;;;18.59;67.95
9261;BME280;4667;42.726;23.252;2023-07-02T04:15:31;94476.78;;;18.29;66.89
9261;BME280;4667;42.726;23.252;2023-07-02T04:17:57;94579.69;;;18.96;66.96
9261;BME280;4667;42.726;23.252;2023-07-02T04:20:24;94586.44;;;18.93;67.97
9261;BME280;4667;42.726;23.252;2023-07-02T04:22:54;94576.69;;;18.98;67.95
9261;BME280;4667;42.726;23.252;2023-07-02T04:25:21;94495.78;;;18.45;66.73
9261;BME280;4667;42.726;23.252;2023-07-02T04:27:48;94438.47;;;18.08;66.29
9261;BME280;4667;42.726;23.252;2023-07-02T04:30:16;94391.81;;;17.62;67.19
9261;BME280;4667;42.726;23.252;2023-07-02T04:32:43;94561.00;;;18.79;67.07
9261;BME280;4667;42.726;23.252;2023-07-02T04:35:10;94432.34;;;17.99;66.70
9261;BME280;4667;42.726;23.252;2023-07-02T04:37:37;94222.94;;;16.66;66.56
9261;BME280;4667;42.726;23.252;2023-07-02T04:40:05;94514.00;;;18.43;66.96
9261;BME280;4667;42.726;23.252;2023-07-02T04:42:35;94509.91;;;18.45;66.33
9261;BME280;4667;42.726;23.252;2023-07-02T04:45:03;94589.59;;;18.95;66.81
9261;BME280;4667;42.726;23.252;2023-07-02T04:47:48;94615.06;;;19.10;66.53
9261;BME280;4667;42.726;23.252;2023-07-02T04:50:16;94616.91;;;19.18;66.25
9261;BME280;4667;42.726;23.252;2023-07-02T04:52:43;94537.44;;;18.72;66.44
9261;BME280;4667;42.726;23.252;2023-07-02T04:55:10;94618.34;;;19.25;65.88
9261;BME280;4667;42.726;23.252;2023-07-02T04:57:37;94618.03;;;19.35;65.71
9261;BME280;4667;42.726;23.252;2023-07-02T05:00:05;94532.72;;;18.86;65.87
9261;BME280;4667;42.726;23.252;2023-07-02T05:02:33;94620.03;;;19.46;65.62
9261;BME280;4667;42.726;23.252;2023-07-02T05:05:01;94617.53;;;19.41;66.29
9261;BME280;4667;42.726;23.252;2023-07-02T05:07:28;94393.13;;;18.08;65.61
9261;BME280;4667;42.726;23.252;2023-07-02T05:09:55;94621.00;;;19.51;65.04
9261;BME280;4667;42.726;23.252;2023-07-02T05:12:22;94335.16;;;17.65;64.91
9261;BME280;4667;42.726;23.252;2023-07-02T05:14:49;94525.81;;;18.94;65.23
9261;BME280;4667;42.726;23.252;2023-07-02T05:17:16;94473.66;;;18.70;64.43
9261;BME280;4667;42.726;23.252;2023-07-02T05:19:44;94485.72;;;18.85;65.07
9261;BME280;4667;42.726;23.252;2023-07-02T05:22:18;94622.50;;;19.86;64.96
9261;BME280;4667;42.726;23.252;2023-07-02T05:24:45;94630.00;;;19.93;64.69
9261;BME280;4667;42.726;23.252;2023-07-02T05:27:11;94533.72;;;19.37;64.88
9261;BME280;4667;42.726;23.252;2023-07-02T05:29:38;94581.91;;;19.76;64.82
9261;BME280;4667;42.726;23.252;2023-07-02T05:32:05;94622.56;;;20.07;63.91
9261;BME280;4667;42.726;23.252;2023-07-02T05:34:32;94549.56;;;19.51;64.24
9261;BME280;4667;42.726;23.252;2023-07-02T05:36:59;94434.66;;;18.78;63.96
9261;BME280;4667;42.726;23.252;2023-07-02T05:39:27;94639.25;;;20.04;63.86
9261;BME280;4667;42.726;23.252;2023-07-02T05:41:55;94638.91;;;20.14;63.40
9261;BME280;4667;42.726;23.252;2023-07-02T05:44:22;94645.69;;;20.12;62.81
9261;BME280;4667;42.726;23.252;2023-07-02T05:46:49;94643.66;;;20.09;62.62
9261;BME280;4667;42.726;23.252;2023-07-02T05:49:15;94649.28;;;20.16;63.75
9261;BME280;4667;42.726;23.252;2023-07-02T05:51:42;94647.88;;;20.18;63.96
9261;BME280;4667;42.726;23.252;2023-07-02T05:54:09;94651.31;;;20.19;64.04
9261;BME280;4667;42.726;23.252;2023-07-02T05:56:37;94648.31;;;20.20;63.99
9261;BME280;4667;42.726;23.252;2023-07-02T05:59:03;94652.81;;;20.37;63.00
9261;BME280;4667;42.726;23.252;2023-07-02T06:01:30;94643.34;;;20.40;62.16
9261;BME280;4667;42.726;23.252;2023-07-02T06:03:57;94644.97;;;20.62;61.79
9261;BME280;4667;42.726;23.252;2023-07-02T06:06:23;94640.41;;;20.62;61.52
9261;BME280;4667;42.726;23.252;2023-07-02T06:08:50;94638.66;;;20.66;61.52
9261;BME280;4667;42.726;23.252;2023-07-02T06:11:17;94630.06;;;20.52;60.52
9261;BME280;4667;42.726;23.252;2023-07-02T06:13:46;94498.22;;;19.96;59.57
9261;BME280;4667;42.726;23.252;2023-07-02T06:16:12;94250.91;;;18.54;59.62
9261;BME280;4667;42.726;23.252;2023-07-02T06:18:39;94513.25;;;20.39;60.75
9261;BME280;4667;42.726;23.252;2023-07-02T06:21:08;94604.38;;;21.14;60.54
9261;BME280;4667;42.726;23.252;2023-07-02T06:23:41;94605.06;;;21.11;59.63
9261;BME280;4667;42.726;23.252;2023-07-02T06:26:08;94614.59;;;21.20;59.10
9261;BME280;4667;42.726;23.252;2023-07-02T06:28:35;94621.31;;;21.26;59.33
9261;BME280;4667;42.726;23.252;2023-07-02T06:31:03;94624.34;;;21.25;59.63
9261;BME280;4667;42.726;23.252;2023-07-02T06:33:30;94601.19;;;21.20;59.42
9261;BME280;4667;42.726;23.252;2023-07-02T06:35:57;94615.53;;;21.24;58.99
9261;BME280;4667;42.726;23.252;2023-07-02T06:38:23;94603.09;;;21.53;58.51
9261;BME280;4667;42.726;23.252;2023-07-02T06:40:50;94536.28;;;21.27;58.03
9261;BME280;4667;42.726;23.252;2023-07-02T06:43:17;94511.88;;;20.74;57.69
9261;BME280;4667;42.726;23.252;2023-07-02T06:45:44;94554.34;;;21.39;57.50
9261;BME280;4667;42.726;23.252;2023-07-02T06:48:12;94605.75;;;21.86;56.91
9261;BME280;4667;42.726;23.252;2023-07-02T06:50:43;94613.47;;;22.00;56.37
9261;BME280;4667;42.726;23.252;2023-07-02T06:53:09;94612.47;;;22.04;56.98
9261;BME280;4667;42.726;23.252;2023-07-02T06:55:36;94607.00;;;22.01;56.46
9261;BME280;4667;42.726;23.252;2023-07-02T06:58:04;94587.50;;;21.79;56.50
9261;BME280;4667;42.726;23.252;2023-07-02T07:00:31;94603.66;;;21.92;56.64
9261;BME280;4667;42.726;23.252;2023-07-02T07:02:57;94603.97;;;22.02;56.16
9261;BME280;4667;42.726;23.252;2023-07-02T07:05:26;94553.53;;;21.71;56.90
9261;BME280;4667;42.726;23.252;2023-07-02T07:07:52;94487.75;;;21.41;57.07
9261;BME280;4667;42.726;23.252;2023-07-02T07:10:19;94603.69;;;22.28;57.56
9261;BME280;4667;42.726;23.252;2023-07-02T07:12:46;94607.03;;;22.38;57.71
9261;BME280;4667;42.726;23.252;2023-07-02T07:15:13;94591.59;;;22.35;57.48
9261;BME280;4667;42.726;23.252;2023-07-02T07:17:39;94548.06;;;22.29;57.70
9261;BME280;4667;42.726;23.252;2023-07-02T07:20:07;94601.97;;;22.73;57.67
9261;BME280;4667;42.726;23.252;2023-07-02T07:22:35;94596.91;;;22.71;57.13
9261;BME280;4667;42.726;23.252;2023-07-02T07:25:02;94592.97;;;22.93;56.55
9261;BME280;4667;42.726;23.252;2023-07-02T07:27:29;94301.09;;;21.15;55.22
9261;BME280;4667;42.726;23.252;2023-07-02T07:29:55;94597.47;;;23.17;55.16
9261;BME280;4667;42.726;23.252;2023-07-02T07:32:22;94563.75;;;22.79;54.79
9261;BME280;4667;42.726;23.252;2023-07-02T07:34:49;94519.25;;;22.82;54.51
9261;BME280;4667;42.726;23.252;2023-07-02T07:37:16;94586.19;;;23.12;54.11
9261;BME280;4667;42.726;23.252;2023-07-02T07:39:44;94581.97;;;23.26;54.33
9261;BME280;4667;42.726;23.252;2023-07-02T07:42:11;94549.72;;;22.98;54.39
9261;BME280;4667;42.726;23.252;2023-07-02T07:44:37;94592.66;;;23.39;54.78
9261;BME280;4667;42.726;23.252;2023-07-02T07:47:04;94520.81;;;22.95;54.57
9261;BME280;4667;42.726;23.252;2023-07-02T07:49:31;94585.19;;;23.60;52.71
9261;BME280;4667;42.726;23.252;2023-07-02T07:51:58;94579.81;;;23.60;52.92
9261;BME280;4667;42.726;23.252;2023-07-02T07:54:24;94587.31;;;23.82;53.47
9261;BME280;4667;42.726;23.252;2023-07-02T07:56:53;94586.94;;;23.84;52.38
9261;BME280;4667;42.726;23.252;2023-07-02T07:59:19;94558.38;;;23.79;53.36
9261;BME280;4667;42.726;23.252;2023-07-02T08:01:46;94481.16;;;23.52;52.02
9261;BME280;4667;42.726;23.252;2023-07-02T08:04:13;94595.56;;;24.21;52.63
9261;BME280;4667;42.726;23.252;2023-07-02T08:06:40;94596.69;;;24.36;52.78
9261;BME280;4667;42.726;23.252;2023-07-02T08:09:06;94598.06;;;24.46;52.62
9261;BME280;4667;42.726;23.252;2023-07-02T08:11:34;94586.69;;;24.52;52.62
9261;BME280;4667;42.726;23.252;2023-07-02T08:14:02;94591.88;;;24.61;52.29
9261;BME280;4667;42.726;23.252;2023-07-02T08:16:29;94588.97;;;24.70;52.72
9261;BME280;4667;42.726;23.252;2023-07-02T08:18:57;94592.97;;;24.76;52.52
9261;BME280;4667;42.726;23.252;2023-07-02T08:21:33;94531.22;;;24.35;52.00
9261;BME280;4667;42.726;23.252;2023-07-02T08:24:00;94588.00;;;24.78;51.93
9261;BME280;4667;42.726;23.252;2023-07-02T08:26:27;94581.78;;;24.93;52.71
9261;BME280;4667;42.726;23.252;2023-07-02T08:28:53;94583.84;;;25.00;52.14
9261;BME280;4667;42.726;23.252;2023-07-02T08:31:22;94597.75;;;25.02;52.39
9261;BME280;4667;42.726;23.252;2023-07-02T08:33:48;94517.94;;;24.43;51.98
9261;BME280;4667;42.726;23.252;2023-07-02T08:36:15;94586.81;;;24.95;52.18
9261;BME280;4667;42.726;23.252;2023-07-02T08:38:42;94589.31;;;25.03;51.87
9261;BME280;4667;42.726;23.252;2023-07-02T08:41:08;94439.06;;;24.10;51.51
9261;BME280;4667;42.726;23.252;2023-07-02T08:43:35;94562.94;;;24.97;52.99
9261;BME280;4667;42.726;23.252;2023-07-02T08:46:02;94590.56;;;25.48;52.17
9261;BME280;4667;42.726;23.252;2023-07-02T08:48:30;94561.91;;;25.63;50.72
9261;BME280;4667;42.726;23.252;2023-07-02T08:50:57;94581.78;;;25.74;49.29
9261;BME280;4667;42.726;23.252;2023-07-02T08:53:24;94583.72;;;25.74;49.66
9261;BME280;4667;42.726;23.252;2023-07-02T08:55:55;94566.78;;;25.96;49.03
9261;BME280;4667;42.726;23.252;2023-07-02T08:58:21;94576.63;;;26.57;47.78
9261;BME280;4667;42.726;23.252;2023-07-02T09:01:04;94578.41;;;26.76;48.12
9261;BME280;4667;42.726;23.252;2023-07-02T09:03:33;94575.50;;;26.88;48.35
9261;BME280;4667;42.726;23.252;2023-07-02T09:06:00;94579.66;;;27.46;46.94
9261;BME280;4667;42.726;23.252;2023-07-02T09:08:28;94579.78;;;27.57;46.04
9261;BME280;4667;42.726;23.252;2023-07-02T09:11:05;94580.00;;;27.41;45.75
9261;BME280;4667;42.726;23.252;2023-07-02T09:13:41;94575.41;;;27.11;45.92
9261;BME280;4667;42.726;23.252;2023-07-02T09:16:08;94584.06;;;26.94;46.34
9261;BME280;4667;42.726;23.252;2023-07-02T09:18:37;94585.03;;;26.79;46.44
9261;BME280;4667;42.726;23.252;2023-07-02T09:21:04;94575.38;;;26.81;46.10
9261;BME280;4667;42.726;23.252;2023-07-02T09:23:34;94578.19;;;26.88;45.54
9261;BME280;4667;42.726;23.252;2023-07-02T09:26:01;94577.22;;;26.74;45.76
9261;BME280;4667;42.726;23.252;2023-07-02T09:28:29;94539.75;;;27.06;46.07
9261;BME280;4667;42.726;23.252;2023-07-02T09:30:57;94566.41;;;28.15;44.79
9261;BME280;4667;42.726;23.252;2023-07-02T09:33:24;94573.47;;;28.86;43.61
9261;BME280;4667;42.726;23.252;2023-07-02T09:35:52;94568.34;;;29.50;40.75
9261;BME280;4667;42.726;23.252;2023-07-02T09:38:20;94412.28;;;29.22;39.89
9261;BME280;4667;42.726;23.252;2023-07-02T09:40:50;94566.88;;;30.77;40.12
9261;BME280;4667;42.726;23.252;2023-07-02T09:43:18;94565.44;;;31.53;38.24
9261;BME280;4667;42.726;23.252;2023-07-02T09:45:46;94563.78;;;31.70;36.41
9261;BME280;4667;42.726;23.252;2023-07-02T09:48:14;94513.47;;;31.09;36.35
9261;BME280;4667;42.726;23.252;2023-07-02T09:50:42;94531.50;;;31.65;36.84
9261;BME280;4667;42.726;23.252;2023-07-02T09:53:11;94553.31;;;32.21;37.03
9261;BME280;4667;42.726;23.252;2023-07-02T09:55:39;94478.44;;;31.84;36.47
9261;BME280;4667;42.726;23.252;2023-07-02T09:58:06;94559.81;;;31.89;36.13
9261;BME280;4667;42.726;23.252;2023-07-02T10:00:33;94562.78;;;31.39;37.64
9261;BME280;4667;42.726;23.252;2023-07-02T10:03:00;94486.88;;;30.32;36.78
9261;BME280;4667;42.726;23.252;2023-07-02T10:05:28;94444.94;;;29.94;39.71
9261;BME280;4667;42.726;23.252;2023-07-02T10:07:56;94554.47;;;30.37;38.31
9261;BME280;4667;42.726;23.252;2023-07-02T10:10:28;94228.75;;;28.29;39.26
9261;BME280;4667;42.726;23.252;2023-07-02T10:12:55;94544.34;;;30.77;39.33
9261;BME280;4667;42.726;23.252;2023-07-02T10:15:25;94541.41;;;31.34;36.88
9261;BME280;4667;42.726;23.252;2023-07-02T10:17:56;94529.41;;;31.91;36.71
9261;BME280;4667;42.726;23.252;2023-07-02T10:20:33;94529.97;;;32.20;35.53
9261;BME280;4667;42.726;23.252;2023-07-02T10:23:00;94336.13;;;31.03;35.21
9261;BME280;4667;42.726;23.252;2023-07-02T10:25:30;94538.66;;;32.90;31.92
9261;BME280;4667;42.726;23.252;2023-07-02T10:27:58;94528.09;;;32.92;32.08
9261;BME280;4667;42.726;23.252;2023-07-02T10:30:32;94463.44;;;31.51;33.41
9261;BME280;4667;42.726;23.252;2023-07-02T10:33:09;94522.13;;;31.70;33.23
9261;BME280;4667;42.726;23.252;2023-07-02T10:35:36;94533.88;;;31.60;34.53
9261;BME280;4667;42.726;23.252;2023-07-02T10:38:04;94525.72;;;31.56;34.58
9261;BME280;4667;42.726;23.252;2023-07-02T10:40:33;94517.66;;;31.31;35.83
9261;BME280;4667;42.726;23.252;2023-07-02T10:43:03;94493.19;;;31.90;34.62
9261;BME280;4667;42.726;23.252;2023-07-02T10:45:33;94528.41;;;32.60;31.27
9261;BME280;4667;42.726;23.252;2023-07-02T10:48:04;94528.47;;;33.25;32.01
9261;BME280;4667;42.726;23.252;2023-07-02T10:50:31;94346.03;;;31.79;30.72
9261;BME280;4667;42.726;23.252;2023-07-02T10:53:04;94529.38;;;33.15;32.48
9261;BME280;4667;42.726;23.252;2023-07-02T10:55:31;94518.38;;;32.50;30.15
9261;BME280;4667;42.726;23.252;2023-07-02T10:58:08;94514.28;;;32.69;31.54
9261;BME280;4667;42.726;23.252;2023-07-02T11:00:47;94461.19;;;32.73;31.45
9261;BME280;4667;42.726;23.252;2023-07-02T11:03:17;94187.78;;;30.73;33.91
9261;BME280;4667;42.726;23.252;2023-07-02T11:05:46;94466.56;;;32.80;30.88
9261;BME280;4667;42.726;23.252;2023-07-02T11:08:16;94155.53;;;30.72;30.48
9261;BME280;4667;42.726;23.252;2023-07-02T11:11:05;94313.56;;;31.92;29.64
9261;BME280;4667;42.726;23.252;2023-07-02T11:13:34;94350.94;;;31.54;31.79
9261;BME280;4667;42.726;23.252;2023-07-02T11:16:20;94390.94;;;30.07;34.48
9261;BME280;4667;42.726;23.252;2023-07-02T11:18:51;94427.38;;;29.02;37.86
9261;BME280;4667;42.726;23.252;2023-07-02T11:21:19;94311.19;;;27.47;40.02
9261;BME280;4667;42.726;23.252;2023-07-02T11:23:49;94474.78;;;27.39;42.61
9261;BME280;4667;42.726;23.252;2023-07-02T11:26:15;94476.66;;;26.98;43.59
9261;BME280;4667;42.726;23.252;2023-07-02T11:28:52;94227.19;;;24.87;44.55
9261;BME280;4667;42.726;23.252;2023-07-02T11:31:25;94558.22;;;26.70;45.85
9261;BME280;4667;42.726;23.252;2023-07-02T11:33:54;94357.53;;;25.14;44.82
9261;BME280;4667;42.726;23.252;2023-07-02T11:36:31;94288.53;;;24.67;44.21
9261;BME280;4667;42.726;23.252;2023-07-02T11:38:58;94422.63;;;25.35;43.68
9261;BME280;4667;42.726;23.252;2023-07-02T11:41:25;94547.34;;;26.13;42.55
9261;BME280;4667;42.726;23.252;2023-07-02T11:44:03;94501.56;;;25.98;42.16
9261;BME280;4667;42.726;23.252;2023-07-02T11:46:30;94366.41;;;24.72;43.06
9261;BME280;4667;42.726;23.252;2023-07-02T11:48:57;94555.94;;;26.19;44.28
9261;BME280;4667;42.726;23.252;2023-07-02T11:51:25;94079.41;;;22.74;43.78
9261;BME280;4667;42.726;23.252;2023-07-02T11:53:52;94275.38;;;24.23;44.38
9261;BME280;4667;42.726;23.252;2023-07-02T11:56:21;94423.47;;;25.39;45.36
9261;BME280;4667;42.726;23.252;2023-07-02T11:58:48;94536.13;;;26.11;48.35
9261;BME280;4667;42.726;23.252;2023-07-02T12:01:17;94412.44;;;25.06;48.06
9261;BME280;4667;42.726;23.252;2023-07-02T12:03:57;94480.09;;;25.36;48.97
9261;BME280;4667;42.726;23.252;2023-07-02T12:06:25;94390.00;;;24.21;49.03
9261;BME280;4667;42.726;23.252;2023-07-02T12:08:52;94519.94;;;25.04;48.54
9261;BME280;4667;42.726;23.252;2023-07-02T12:11:19;94368.94;;;23.88;48.81
9261;BME280;4667;42.726;23.252;2023-07-02T12:13:46;94119.69;;;21.91;49.98
9261;BME280;4667;42.726;23.252;2023-07-02T12:16:13;94391.81;;;24.32;50.40
9261;BME280;4667;42.726;23.252;2023-07-02T12:18:41;94196.75;;;23.56;50.11
9261;BME280;4667;42.726;23.252;2023-07-02T12:21:11;94449.09;;;25.49;49.98
9261;BME280;4667;42.726;23.252;2023-07-02T12:23:37;94367.56;;;24.94;51.03
9261;BME280;4667;42.726;23.252;2023-07-02T12:26:06;94270.81;;;25.15;48.65
9261;BME280;4667;42.726;23.252;2023-07-02T12:28:35;94403.75;;;27.12;49.33
9261;BME280;4667;42.726;23.252;2023-07-02T12:31:06;94200.44;;;26.69;45.38
9261;BME280;4667;42.726;23.252;2023-07-02T12:33:33;94202.44;;;27.35;40.88
9261;BME280;4667;42.726;23.252;2023-07-02T12:36:06;94323.47;;;28.98;38.31
9261;BME280;4667;42.726;23.252;2023-07-02T12:38:34;94448.28;;;30.76;35.65
9261;BME280;4667;42.726;23.252;2023-07-02T12:41:03;94415.00;;;31.17;35.90
9261;BME280;4667;42.726;23.252;2023-07-02T12:43:29;94355.66;;;31.46;35.27
9261;BME280;4667;42.726;23.252;2023-07-02T12:45:58;94204.63;;;30.50;34.83
9261;BME280;4667;42.726;23.252;2023-07-02T12:48:25;94459.44;;;30.96;35.79
9261;BME280;4667;42.726;23.252;2023-07-02T12:50:55;94558.28;;;31.85;35.65
9261;BME280;4667;42.726;23.252;2023-07-02T12:53:36;94393.38;;;30.89;34.51
9261;BME280;4667;42.726;23.252;2023-07-02T12:56:03;94447.09;;;32.03;34.26
9261;BME280;4667;42.726;23.252;2023-07-02T12:58:36;94488.16;;;32.30;33.90
9261;BME280;4667;42.726;23.252;2023-07-02T13:01:14;94168.50;;;30.50;34.07
9261;BME280;4667;42.726;23.252;2023-07-02T13:03:56;94544.19;;;32.45;33.17
9261;BME280;4667;42.726;23.252;2023-07-02T13:06:32;94293.53;;;31.30;34.57
9261;BME280;4667;42.726;23.252;2023-07-02T13:09:07;94197.81;;;30.28;35.45
9261;BME280;4667;42.726;23.252;2023-07-02T13:11:40;94224.34;;;29.99;34.96
9261;BME280;4667;42.726;23.252;2023-07-02T13:14:07;94243.50;;;29.63;36.86
9261;BME280;4667;42.726;23.252;2023-07-02T13:16:45;94102.84;;;27.90;35.65